Avioradar koristi kolačiće da bi Vam omogućio jednostavnije i ugodnije korištenje stranice. 

AVIORADAR - Croatian aviation website

METAR & TAF

[Source: ADDS]
METAR
LDZA 141830Z VRB01KT 9999 -DZ OVC013 08/06 Q1011 NOSIG =
COR LDZA 141728Z 1418/1518 VRB02KT 9999 OVC018 TX10/1512Z TN04/1503Z PROB40 1418/1500 OVC014 BECMG 1500/1502 4000 BR OVC008 PROB30 1503/1508 0200 FG VV001 BECMG 1510/1512 05006KT 9999 NSW SCT020 LDSP 141830Z 35004KT 310V050 9999 BKN060 15/10 Q1009 NOSIG =
LDSP 141725Z 1418/1518 10008KT 9999 FEW030 BKN060 TX17/1517Z TN13/1420Z BECMG 1503/1505 10010KT BECMG 1508/1510 10020KT PROB30 TEMPO 1509/1515 5000 -SHRA FEW020TCU BKN023 PROB40 TEMPO 1510/1518 11020G30KT LDDU 141830Z 08007KT CAVOK 13/10 Q1011 NOSIG =
LDDU 141725Z 1418/1518 09006KT 9999 FEW025 TX16/1511Z TN13/1421Z BECMG 1422/1500 10009KT BECMG 1505/1507 12015KT BECMG 1509/1511 12025KT PROB40 TEMPO 1511/1518 12025G35KT LDPL 141830Z 07009KT 9999 SCT050 12/08 Q1008 NOSIG =
LDPL 141725Z 1418/1518 06007KT CAVOK TX17/1511Z TN10/1421Z PROB40 TEMPO 1418/1518 4000 SHRA SCT020TCU BKN030 BECMG 1420/1422 15015KT TEMPO 1502/1518 15015G25KT PROB30 TEMPO 1515/1518 15020G35KT TSRA FEW020CB BKN025 LDZD 141830Z 10003KT 070V140 9999 FEW033 SCT070 13/10 Q1009 NOSIG =
LDZD 141725Z 1418/1518 11008KT 9999 SCT030 BKN070 TX17/1513Z TN11/1501Z BECMG 1502/1504 12015KT PROB30 TEMPO 1504/1510 12015G28KT BECMG 1510/1512 13025KT PROB40 TEMPO 1510/1518 14025G40KT LDRI 141830Z 35005KT 9999 -RA FEW036 BKN050 12/09 Q1009 RERA =
LDRI 141725Z 1418/1518 12005KT 9999 SCT030 BKN040 TX16/1511Z TN11/1421Z PROB30 TEMPO 1418/1518 SHRA FEW030TCU BKN035 BECMG 1510/1512 14012KT LDOS 141830Z 10002KT 9999 SCT017 09/08 Q1012 =
LDOS 141725Z 1418/1518 VRB02KT CAVOK TX15/1511Z TN04/1505Z BECMG 1420/1422 3000 BR BKN005 BECMG 1500/1502 0200 FG VV001 BECMG 1508/1510 4000 BR SCT010 BECMG 1510/1512 11010KT 9999 NSW
TAF
COR LDZA 141728Z 1418/1518 VRB02KT 9999 OVC018 TX10/1512Z TN04/1503Z PROB40 1418/1500 OVC014 BECMG 1500/1502 4000 BR OVC008 PROB30 1503/1508 0200 FG VV001 BECMG 1510/1512 05006KT 9999 NSW SCT020 =
LDSP 141725Z 1418/1518 10008KT 9999 FEW030 BKN060 TX17/1517Z TN13/1420Z BECMG 1503/1505 10010KT BECMG 1508/1510 10020KT PROB30 TEMPO 1509/1515 5000 -SHRA FEW020TCU BKN023 PROB40 TEMPO 1510/1518 11020G30KT =
LDDU 141725Z 1418/1518 09006KT 9999 FEW025 TX16/1511Z TN13/1421Z BECMG 1422/1500 10009KT BECMG 1505/1507 12015KT BECMG 1509/1511 12025KT PROB40 TEMPO 1511/1518 12025G35KT =
LDPL 141725Z 1418/1518 06007KT CAVOK TX17/1511Z TN10/1421Z PROB40 TEMPO 1418/1518 4000 SHRA SCT020TCU BKN030 BECMG 1420/1422 15015KT TEMPO 1502/1518 15015G25KT PROB30 TEMPO 1515/1518 15020G35KT TSRA FEW020CB BKN025 =
LDZD 141725Z 1418/1518 11008KT 9999 SCT030 BKN070 TX17/1513Z TN11/1501Z BECMG 1502/1504 12015KT PROB30 TEMPO 1504/1510 12015G28KT BECMG 1510/1512 13025KT PROB40 TEMPO 1510/1518 14025G40KT =
LDRI 141725Z 1418/1518 12005KT 9999 SCT030 BKN040 TX16/1511Z TN11/1421Z PROB30 TEMPO 1418/1518 SHRA FEW030TCU BKN035 BECMG 1510/1512 14012KT =
LDOS 141725Z 1418/1518 VRB02KT CAVOK TX15/1511Z TN04/1505Z BECMG 1420/1422 3000 BR BKN005 BECMG 1500/1502 0200 FG VV001 BECMG 1508/1510 4000 BR SCT010 BECMG 1510/1512 11010KT 9999 NSW =
SR / SS: 05:54 / 15:26 UTC (Zagreb 2019-11-14)